Новомарковка

Карта отелей и гостиниц, располагающихся рядом с аэропортом Новомарковка :

Новомарковка Воронежская область 49° 42' 19.3392" N, 39° 45' 9.6192" E
Код аэродрома ИКАО
HGR1
Код аэродрома RU
ХГР1
Координаты
N49.70537° E039.75267°
Превышение над уровнем моря
168
Основная полоса
05/23
Курс магнитный
054,5/234,5
Длина основной ВПП
10
Ширина основной ВПП
10
Покрытие основной ВПП
Твёрдое
Освещение ВПП
Нет
Тип: 
Вертодром
Класс аэродрома: 
Принадлежность: 
ГА
Статус: 
Действующий
Сайт: 
E-mail аэродрома: 
Страна: 
Россия
Регион: 
Воронежская область
Город: 
Дополнительная информация: 
Владелец ПП: нет данных.

Найти трансфер

С помощью этой формы Вы можете найти трансфер из аэропорта Новомарковка в город, аэропорт или вокзал:

Карта места

Javascript is required to view this map.

Погода в аэропортах:

Авиационная погода в Алматы

Регион: 
Погода METAR: 
UAAA 281400Z 20002MPS 1200 R05L/P2000 R05R/P2000 BR FU FEW200 M03/M06 Q1026 NOSIG
Время наблюдения
2021-11-28T14:00:00Z
Температура C
-3.0
Точка росы
-6.0
Направление ветра
200
Скорость ветра (узлы)
4
Метео видимость
0.75
Явления погоды
FU BR
Условия полета
LIFR
Аэропорт подробнее: 

Авиационная погода в Самаре

Регион: 
Погода METAR: 
UWWW 281300Z 18008MPS 9000 -FZRA OVC008 M01/M03 Q1016 R15/590234 TEMPO 2000 FZRA RMK QFE750/1000
Время наблюдения
2021-11-28T13:00:00Z
Температура C
-1.0
Точка росы
-3.0
Направление ветра
180
Скорость ветра (узлы)
16
Метео видимость
5.59
Явления погоды
-FZRA
Условия полета
IFR
Аэропорт подробнее: 

Авиационная погода в Угольном

Регион: 
Погода METAR: 
UHMA 281300Z 02002MPS 9000 -SN FEW027 BKN038 M19/M21 Q1019 R01/////// TEMPO 3000 -SN RMK TDZ R01/02002MPS END R01/04001G02MPS QFE760/1014
Время наблюдения
2021-11-28T13:00:00Z
Температура C
-19.0
Точка росы
-21.0
Направление ветра
20
Скорость ветра (узлы)
4
Метео видимость
5.59
Явления погоды
-SN
Условия полета
VFR
Аэропорт подробнее: 

Авиационная погода в Симферополе

Погода METAR: 
URFF 281300Z 13002MPS 7000 -SHRA BKN033CB OVC063 13/13 Q1006 R19/290395 NOSIG
Время наблюдения
2021-11-28T13:00:00Z
Температура C
13.0
Точка росы
13.0
Направление ветра
130
Скорость ветра (узлы)
4
Метео видимость
4.35
Явления погоды
-SHRA
Условия полета
MVFR
Аэропорт подробнее: